createdAt,value
2023-04-20T00:01:14.658Z,90.73
2023-04-20T00:03:52.174Z,90.79
2023-04-20T00:06:33.223Z,90.87
2023-04-20T00:09:09.692Z,90.95
2023-04-20T00:11:48.364Z,90.99
2023-04-20T00:14:24.936Z,91.02
2023-04-20T00:17:01.278Z,91.04
2023-04-20T00:19:37.651Z,91.10
2023-04-20T00:22:17.712Z,91.16
2023-04-20T00:24:54.015Z,91.21
2023-04-20T00:27:36.302Z,91.26
2023-04-20T00:30:20.744Z,91.30
2023-04-20T00:32:57.369Z,91.32
2023-04-20T00:35:34.465Z,91.37
2023-04-20T00:38:10.817Z,91.42
2023-04-20T00:40:53.230Z,91.46
2023-04-20T00:43:29.770Z,91.53
2023-04-20T00:46:06.276Z,91.58
2023-04-20T00:48:49.117Z,91.61
2023-04-20T00:51:26.500Z,91.66
2023-04-20T00:54:03.268Z,91.73
2023-04-20T00:56:40.928Z,91.81
2023-04-20T00:59:18.110Z,91.87
2023-04-20T01:01:55.752Z,91.93
2023-04-20T01:04:32.331Z,91.99
2023-04-20T01:07:09.157Z,92.05
2023-04-20T01:09:45.469Z,92.11
2023-04-20T01:12:21.630Z,92.16
2023-04-20T01:14:58.030Z,92.20
2023-04-20T01:17:35.007Z,92.27
2023-04-20T01:20:15.335Z,92.38
2023-04-20T01:22:56.762Z,92.46
2023-04-20T01:25:33.894Z,92.51
2023-04-20T01:28:11.313Z,92.57
2023-04-20T01:30:48.218Z,92.61
2023-04-20T01:33:24.607Z,92.66
2023-04-20T01:36:02.142Z,92.71
2023-04-20T01:38:39.588Z,92.75
2023-04-20T01:41:16.537Z,92.77
2023-04-20T01:43:52.899Z,92.81
2023-04-20T01:46:29.468Z,92.87
2023-04-20T01:49:06.084Z,92.91
2023-04-20T01:51:42.560Z,92.97
2023-04-20T01:54:18.865Z,93.01
2023-04-20T01:56:55.351Z,93.05
2023-04-20T01:59:33.574Z,93.11
2023-04-20T02:02:11.414Z,93.14
2023-04-20T02:04:53.401Z,93.19
2023-04-20T02:07:30.124Z,93.22
2023-04-20T02:10:07.202Z,93.24
2023-04-20T02:12:43.418Z,93.27
2023-04-20T02:15:20.053Z,93.29
2023-04-20T02:17:57.604Z,93.32
2023-04-20T02:20:34.300Z,93.34
2023-04-20T02:23:11.170Z,93.35
2023-04-20T02:25:47.537Z,93.39
2023-04-20T02:28:23.907Z,93.40
2023-04-20T02:31:00.184Z,93.43
2023-04-20T02:33:37.442Z,93.44
2023-04-20T02:36:15.043Z,93.47
2023-04-20T02:38:51.287Z,93.47
2023-04-20T02:41:30.440Z,93.49
2023-04-20T02:44:07.068Z,93.50
2023-04-20T02:46:45.094Z,93.51
2023-04-20T02:49:21.698Z,93.53
2023-04-20T02:52:03.947Z,93.55
2023-04-20T02:54:40.245Z,93.55
2023-04-20T02:57:20.109Z,93.55
2023-04-20T02:59:56.726Z,93.55
2023-04-20T03:02:47.033Z,93.55
2023-04-20T03:05:24.333Z,93.55
2023-04-20T03:08:01.224Z,93.56
2023-04-20T03:10:37.692Z,93.55
2023-04-20T03:13:22.962Z,93.55
2023-04-20T03:16:06.885Z,93.54
2023-04-20T03:18:51.765Z,93.53
2023-04-20T03:21:28.735Z,93.53
2023-04-20T03:24:06.269Z,93.53
2023-04-20T03:26:42.800Z,93.52
2023-04-20T03:29:25.407Z,93.51
2023-04-20T03:32:02.333Z,93.50
2023-04-20T03:34:38.752Z,93.47
2023-04-20T03:37:15.678Z,93.47
2023-04-20T03:39:52.208Z,93.48
2023-04-20T03:42:30.311Z,93.47
2023-04-20T03:45:08.603Z,93.47
2023-04-20T03:47:49.365Z,93.46
2023-04-20T03:50:26.538Z,93.45
2023-04-20T03:53:03.138Z,93.43
2023-04-20T03:55:40.960Z,93.43
2023-04-20T03:58:21.158Z,93.44
2023-04-20T04:01:21.407Z,93.43
2023-04-20T04:03:58.615Z,93.42
2023-04-20T04:06:35.057Z,93.40
2023-04-20T04:09:11.629Z,93.41
2023-04-20T04:11:47.992Z,93.41
2023-04-20T04:14:24.452Z,93.41
2023-04-20T04:17:02.855Z,93.41
2023-04-20T04:19:39.958Z,93.39
2023-04-20T04:22:16.340Z,93.38
2023-04-20T04:25:04.122Z,93.39
2023-04-20T04:27:42.280Z,93.40
2023-04-20T04:30:20.012Z,93.40
2023-04-20T04:32:57.729Z,93.39
2023-04-20T04:35:34.725Z,93.39
2023-04-20T04:38:12.864Z,93.40
2023-04-20T04:40:52.587Z,93.40
2023-04-20T04:43:31.004Z,93.39
2023-04-20T04:46:16.723Z,93.37
2023-04-20T04:49:13.610Z,93.30
2023-04-20T04:51:52.760Z,93.19
2023-04-20T04:54:36.646Z,93.07
2023-04-20T04:57:13.048Z,92.93
2023-04-20T04:59:49.409Z,92.77
2023-04-20T05:02:25.853Z,92.59
2023-04-20T05:05:02.300Z,92.41
2023-04-20T05:07:40.284Z,92.16
2023-04-20T05:10:16.905Z,91.90
2023-04-20T05:13:16.515Z,91.51
2023-04-20T05:15:57.159Z,91.15
2023-04-20T05:18:33.652Z,90.84
2023-04-20T05:21:11.279Z,90.53
2023-04-20T05:23:47.604Z,90.14
2023-04-20T05:26:24.475Z,89.64
2023-04-20T05:29:00.628Z,89.14
2023-04-20T05:31:36.882Z,88.85
2023-04-20T05:34:13.929Z,88.26
2023-04-20T05:36:51.190Z,87.93
2023-04-20T05:39:30.672Z,87.60
2023-04-20T05:42:07.128Z,87.10
2023-04-20T05:44:44.170Z,86.85
2023-04-20T05:47:20.562Z,86.56
2023-04-20T05:49:57.004Z,86.14
2023-04-20T05:52:33.601Z,86.04
2023-04-20T05:55:12.196Z,85.84
2023-04-20T05:57:48.683Z,85.73
2023-04-20T06:00:26.457Z,85.66
2023-04-20T06:03:03.114Z,85.44
2023-04-20T06:05:39.796Z,85.35
2023-04-20T06:08:19.637Z,85.13
2023-04-20T06:10:59.507Z,84.88
2023-04-20T06:13:35.986Z,84.67
2023-04-20T06:16:13.369Z,84.41
2023-04-20T06:18:52.375Z,84.12
2023-04-20T06:21:28.699Z,83.55
2023-04-20T06:24:05.659Z,82.82
2023-04-20T06:26:41.895Z,81.99
2023-04-20T06:29:18.883Z,81.13
2023-04-20T06:31:55.372Z,80.29
2023-04-20T06:34:41.318Z,80.07
2023-04-20T06:37:21.698Z,79.64
2023-04-20T06:40:00.572Z,79.27
2023-04-20T06:42:37.525Z,78.85
2023-04-20T06:45:16.200Z,77.85
2023-04-20T06:47:52.494Z,74.99
2023-04-20T06:50:29.449Z,72.33
2023-04-20T06:53:06.779Z,69.97
2023-04-20T06:55:43.333Z,68.34
2023-04-20T06:58:19.764Z,67.09
2023-04-20T07:00:56.080Z,65.79
2023-04-20T07:03:32.881Z,63.22
2023-04-20T07:06:11.360Z,62.95
2023-04-20T07:08:48.236Z,62.10
2023-04-20T07:11:25.029Z,63.53
2023-04-20T07:14:01.542Z,64.98
2023-04-20T07:16:37.918Z,65.27
2023-04-20T07:19:14.378Z,64.49
2023-04-20T07:21:50.665Z,63.01
2023-04-20T07:24:27.823Z,62.35
2023-04-20T07:27:08.941Z,62.67
2023-04-20T07:29:45.413Z,61.56
2023-04-20T07:32:21.922Z,60.75
2023-04-20T07:34:58.514Z,57.33
2023-04-20T07:37:36.631Z,56.04
2023-04-20T07:40:17.045Z,55.19
2023-04-20T07:43:00.015Z,54.77
2023-04-20T07:45:36.921Z,55.04
2023-04-20T07:48:15.216Z,53.51
2023-04-20T07:50:51.873Z,54.64
2023-04-20T07:53:28.428Z,54.47
2023-04-20T07:56:05.339Z,55.10
2023-04-20T07:58:41.565Z,55.75
2023-04-20T08:01:18.089Z,56.62
2023-04-20T08:03:58.980Z,56.76
2023-04-20T08:06:35.860Z,56.98
2023-04-20T08:09:13.407Z,57.64
2023-04-20T08:11:49.988Z,57.30
2023-04-20T08:14:26.421Z,57.00
2023-04-20T08:17:03.793Z,56.34
2023-04-20T08:19:43.787Z,56.56
2023-04-20T08:22:22.153Z,56.36
2023-04-20T08:24:58.681Z,55.48
2023-04-20T08:27:35.021Z,54.66
2023-04-20T08:30:14.513Z,56.05
2023-04-20T08:32:51.029Z,55.55
2023-04-20T08:35:27.696Z,54.35
2023-04-20T08:38:03.995Z,55.31
2023-04-20T08:40:41.324Z,55.99
2023-04-20T08:43:17.677Z,56.27
2023-04-20T08:45:59.120Z,55.82
2023-04-20T08:48:39.445Z,54.87
2023-04-20T08:51:18.288Z,54.71
2023-04-20T08:53:56.185Z,53.86
2023-04-20T08:56:44.011Z,54.33
2023-04-20T08:59:21.493Z,55.75
2023-04-20T09:01:57.914Z,55.71
2023-04-20T09:04:34.697Z,56.73
2023-04-20T09:07:24.166Z,56.91
2023-04-20T09:10:04.818Z,56.90
2023-04-20T09:12:48.389Z,55.93
2023-04-20T09:15:35.965Z,55.32
2023-04-20T09:18:21.573Z,56.16
2023-04-20T09:21:10.719Z,55.04
2023-04-20T09:23:56.927Z,55.38
2023-04-20T09:26:37.452Z,54.33
2023-04-20T09:29:25.756Z,55.15
2023-04-20T09:32:02.231Z,55.50
2023-04-20T09:34:48.739Z,55.29
2023-04-20T09:37:26.748Z,55.66
2023-04-20T09:40:06.317Z,55.54
2023-04-20T09:42:44.993Z,55.63
2023-04-20T09:45:22.235Z,56.04
2023-04-20T09:48:00.798Z,56.95
2023-04-20T09:50:48.487Z,56.83
2023-04-20T09:53:26.485Z,57.13
2023-04-20T09:56:04.383Z,56.50
2023-04-20T09:58:41.474Z,57.08
2023-04-20T10:01:25.665Z,56.93
2023-04-20T10:04:11.945Z,57.41
2023-04-20T10:07:06.225Z,57.75
2023-04-20T10:09:42.707Z,57.96
2023-04-20T10:12:20.441Z,58.07
2023-04-20T10:15:02.480Z,58.95
2023-04-20T10:17:39.976Z,59.79
2023-04-20T10:20:28.527Z,60.09
2023-04-20T10:23:16.356Z,60.59
2023-04-20T10:26:04.047Z,61.40
2023-04-20T10:28:49.907Z,61.19
2023-04-20T10:31:36.411Z,61.40
2023-04-20T10:34:13.121Z,61.90
2023-04-20T10:36:49.549Z,61.63
2023-04-20T10:39:27.733Z,61.19
2023-04-20T10:42:04.075Z,61.12
2023-04-20T10:44:50.623Z,61.05
2023-04-20T10:47:37.734Z,61.14
2023-04-20T10:50:19.656Z,61.12
2023-04-20T10:52:57.400Z,60.86
2023-04-20T10:55:34.425Z,60.73
2023-04-20T10:58:10.982Z,61.09
2023-04-20T11:00:57.877Z,61.06
2023-04-20T11:03:36.378Z,61.36
2023-04-20T11:06:13.935Z,61.03
2023-04-20T11:08:50.354Z,60.47
2023-04-20T11:11:40.467Z,60.24
2023-04-20T11:14:26.995Z,59.84
2023-04-20T11:17:03.725Z,58.66
2023-04-20T11:19:41.252Z,59.38
2023-04-20T11:22:25.517Z,59.48
2023-04-20T11:25:15.044Z,59.40
2023-04-20T11:27:51.377Z,59.37
2023-04-20T11:30:28.077Z,59.64
2023-04-20T11:33:04.573Z,59.90
2023-04-20T11:35:44.858Z,58.35
2023-04-20T11:38:32.204Z,58.71
2023-04-20T11:41:09.999Z,58.69
2023-04-20T11:43:46.777Z,57.53
2023-04-20T11:46:44.178Z,57.31
2023-04-20T11:49:21.608Z,57.30
2023-04-20T11:51:58.363Z,57.05
2023-04-20T11:54:35.226Z,56.18
2023-04-20T11:57:11.679Z,55.42
2023-04-20T11:59:49.355Z,55.45
2023-04-20T12:02:26.194Z,55.15
2023-04-20T12:05:03.828Z,56.21
2023-04-20T12:07:40.707Z,55.33
2023-04-20T12:10:17.176Z,55.02
2023-04-20T12:12:53.878Z,56.20
2023-04-20T12:15:30.358Z,56.13
2023-04-20T12:18:07.064Z,56.65
2023-04-20T12:20:43.377Z,56.43
2023-04-20T12:23:20.412Z,56.07
2023-04-20T12:25:56.665Z,56.44
2023-04-20T12:28:33.406Z,57.15
2023-04-20T12:31:10.043Z,56.73
2023-04-20T12:33:46.484Z,55.95
2023-04-20T12:36:22.846Z,55.91
2023-04-20T12:38:59.588Z,55.95
2023-04-20T12:41:43.819Z,55.28
2023-04-20T12:44:20.533Z,54.81
2023-04-20T12:46:57.407Z,55.35
2023-04-20T12:49:34.382Z,55.22
2023-04-20T12:52:11.385Z,54.69
2023-04-20T12:54:47.605Z,56.19
2023-04-20T12:57:24.110Z,55.72
2023-04-20T13:00:02.697Z,56.48
2023-04-20T13:02:39.388Z,54.25
2023-04-20T13:05:16.655Z,54.51
2023-04-20T13:08:04.720Z,55.35
2023-04-20T13:10:43.609Z,56.51
2023-04-20T13:13:19.856Z,56.95
2023-04-20T13:15:57.760Z,57.58
2023-04-20T13:18:34.989Z,57.50
2023-04-20T13:21:15.879Z,57.98
2023-04-20T13:23:58.167Z,57.72
2023-04-20T13:26:34.691Z,57.43
2023-04-20T13:29:11.417Z,56.34
2023-04-20T13:31:48.630Z,56.62
2023-04-20T13:34:25.046Z,56.00
2023-04-20T13:37:01.428Z,54.28
2023-04-20T13:39:37.979Z,54.69
2023-04-20T13:42:14.452Z,55.71
2023-04-20T13:44:54.929Z,55.97
2023-04-20T13:47:31.501Z,56.47
2023-04-20T13:50:09.740Z,56.08
2023-04-20T13:52:46.291Z,55.48
2023-04-20T13:55:26.929Z,54.65
2023-04-20T13:58:03.550Z,54.50
2023-04-20T14:00:39.891Z,55.14
2023-04-20T14:03:21.368Z,55.16
2023-04-20T14:05:58.114Z,55.56
2023-04-20T14:08:34.706Z,55.42
2023-04-20T14:11:11.279Z,55.95
2023-04-20T14:13:50.185Z,55.21
2023-04-20T14:16:27.847Z,55.59
2023-04-20T14:19:04.679Z,55.78
2023-04-20T14:21:44.468Z,55.66
2023-04-20T14:24:20.827Z,55.03
2023-04-20T14:26:58.496Z,55.16
2023-04-20T14:29:36.164Z,54.89
2023-04-20T14:32:16.020Z,55.42
2023-04-20T14:34:52.343Z,55.50
2023-04-20T14:37:28.758Z,56.21
2023-04-20T14:40:07.390Z,56.73
2023-04-20T14:42:43.678Z,57.08
2023-04-20T14:45:20.986Z,57.11
2023-04-20T14:48:00.204Z,57.24
2023-04-20T14:50:41.561Z,57.18
2023-04-20T14:53:19.073Z,57.50
2023-04-20T14:55:56.362Z,57.36
2023-04-20T14:58:36.271Z,57.38
2023-04-20T15:01:12.966Z,57.66
2023-04-20T15:03:53.385Z,57.21
2023-04-20T15:06:30.927Z,57.55
2023-04-20T15:09:07.558Z,57.45
2023-04-20T15:11:57.026Z,57.11
2023-04-20T15:14:33.800Z,56.80
2023-04-20T15:17:11.815Z,57.39
2023-04-20T15:19:48.174Z,57.06
2023-04-20T15:22:24.861Z,57.05
2023-04-20T15:25:01.125Z,57.44
2023-04-20T15:27:38.117Z,57.68
2023-04-20T15:30:16.430Z,57.58
2023-04-20T15:32:53.468Z,58.09
2023-04-20T15:35:30.153Z,57.95
2023-04-20T15:38:07.030Z,58.13
2023-04-20T15:40:45.055Z,58.35
2023-04-20T15:43:21.334Z,58.67
2023-04-20T15:45:57.776Z,58.69
2023-04-20T15:48:34.421Z,58.63
2023-04-20T15:51:11.052Z,58.68
2023-04-20T15:53:50.741Z,58.81
2023-04-20T15:56:27.426Z,59.06
2023-04-20T15:59:04.621Z,59.21
2023-04-20T16:01:41.412Z,59.36
2023-04-20T16:04:18.326Z,59.26
2023-04-20T16:07:00.969Z,59.46
2023-04-20T16:09:40.420Z,59.50
2023-04-20T16:12:22.407Z,59.50
2023-04-20T16:14:58.772Z,59.66
2023-04-20T16:17:43.326Z,59.75
2023-04-20T16:20:25.265Z,59.80
2023-04-20T16:23:03.683Z,59.96
2023-04-20T16:25:40.862Z,60.31
2023-04-20T16:28:21.273Z,60.80
2023-04-20T16:30:57.960Z,61.22
2023-04-20T16:33:35.738Z,61.14
2023-04-20T16:36:13.773Z,61.29
2023-04-20T16:38:50.319Z,61.71
2023-04-20T16:41:27.272Z,61.75
2023-04-20T16:44:03.678Z,62.20
2023-04-20T16:46:42.045Z,62.23
2023-04-20T16:49:19.600Z,62.48
2023-04-20T16:51:58.494Z,62.59
2023-04-20T16:55:00.573Z,62.76
2023-04-20T16:57:36.876Z,63.04
2023-04-20T17:00:17.526Z,63.30
2023-04-20T17:02:54.998Z,63.62
2023-04-20T17:05:31.768Z,63.72
2023-04-20T17:08:08.774Z,63.92
2023-04-20T17:10:45.196Z,64.29
2023-04-20T17:13:23.596Z,64.41
2023-04-20T17:16:00.143Z,64.47
2023-04-20T17:18:39.771Z,64.74
2023-04-20T17:21:24.180Z,65.01
2023-04-20T17:24:00.754Z,65.30
2023-04-20T17:26:37.459Z,65.64
2023-04-20T17:29:13.900Z,65.91
2023-04-20T17:31:50.558Z,66.28
2023-04-20T17:34:27.489Z,66.58
2023-04-20T17:37:03.921Z,66.85
2023-04-20T17:39:40.230Z,67.21
2023-04-20T17:42:16.857Z,67.53
2023-04-20T17:44:54.141Z,67.95
2023-04-20T17:47:32.681Z,68.21
2023-04-20T17:50:13.470Z,68.55
2023-04-20T17:52:49.985Z,68.89
2023-04-20T17:55:26.860Z,69.22
2023-04-20T17:58:04.887Z,69.59
2023-04-20T18:00:41.485Z,69.91
2023-04-20T18:03:20.159Z,70.25
2023-04-20T18:05:56.895Z,70.47
2023-04-20T18:08:34.516Z,70.66
2023-04-20T18:11:11.613Z,70.83
2023-04-20T18:13:47.973Z,70.99
2023-04-20T18:16:24.397Z,70.90
2023-04-20T18:19:29.368Z,70.80
2023-04-20T18:22:06.238Z,70.93
2023-04-20T18:24:42.686Z,70.79
2023-04-20T18:27:19.076Z,70.79
2023-04-20T18:29:59.919Z,70.68
2023-04-20T18:32:38.733Z,70.66
2023-04-20T18:35:16.743Z,70.69
2023-04-20T18:37:53.694Z,70.68
2023-04-20T18:40:30.021Z,70.74
2023-04-20T18:43:16.508Z,70.65
2023-04-20T18:45:52.778Z,70.60
2023-04-20T18:48:29.244Z,70.66
2023-04-20T18:51:05.774Z,70.70
2023-04-20T18:53:42.281Z,70.73
2023-04-20T18:56:21.135Z,70.71
2023-04-20T18:58:59.626Z,70.83
2023-04-20T19:01:40.664Z,70.77
2023-04-20T19:04:17.509Z,70.75
2023-04-20T19:06:54.252Z,70.81
2023-04-20T19:09:31.059Z,70.88
2023-04-20T19:12:12.595Z,70.79
2023-04-20T19:14:49.642Z,70.76
2023-04-20T19:17:33.563Z,70.86
2023-04-20T19:20:13.133Z,70.96
2023-04-20T19:22:49.639Z,71.03
2023-04-20T19:25:29.730Z,71.15
2023-04-20T19:28:08.255Z,71.24
2023-04-20T19:30:44.815Z,71.37
2023-04-20T19:33:21.435Z,71.50
2023-04-20T19:36:14.901Z,71.50
2023-04-20T19:38:51.840Z,71.52
2023-04-20T19:41:29.045Z,71.51
2023-04-20T19:44:06.622Z,71.43
2023-04-20T19:46:44.967Z,71.44
2023-04-20T19:49:21.654Z,71.69
2023-04-20T19:52:00.975Z,71.69
2023-04-20T19:54:37.341Z,71.73
2023-04-20T19:57:14.118Z,71.80
2023-04-20T19:59:51.170Z,71.81
2023-04-20T20:02:28.432Z,71.98
2023-04-20T20:05:06.801Z,72.01
2023-04-20T20:07:49.014Z,72.06
2023-04-20T20:10:25.457Z,72.18
2023-04-20T20:13:02.126Z,72.23
2023-04-20T20:15:38.633Z,72.38
2023-04-20T20:18:26.012Z,72.39
2023-04-20T20:21:02.392Z,72.79
2023-04-20T20:23:38.754Z,73.00
2023-04-20T20:26:15.211Z,73.17
2023-04-20T20:28:51.706Z,73.33
2023-04-20T20:31:28.790Z,73.40
2023-04-20T20:34:06.748Z,73.45
2023-04-20T20:36:46.014Z,73.47
2023-04-20T20:39:23.278Z,73.47
2023-04-20T20:41:59.828Z,73.52
2023-04-20T20:44:39.200Z,73.56
2023-04-20T20:47:15.677Z,73.59
2023-04-20T20:49:52.048Z,73.59
2023-04-20T20:52:28.413Z,73.66
2023-04-20T20:55:05.294Z,73.65
2023-04-20T20:57:41.629Z,73.70
2023-04-20T21:00:20.420Z,73.81
2023-04-20T21:02:57.850Z,73.88
2023-04-20T21:05:39.956Z,73.91
2023-04-20T21:08:17.400Z,73.96
2023-04-20T21:10:53.914Z,74.10
2023-04-20T21:13:30.379Z,74.34
2023-04-20T21:16:07.313Z,74.54
2023-04-20T21:18:57.462Z,74.67
2023-04-20T21:21:34.628Z,74.79
2023-04-20T21:24:12.694Z,74.96
2023-04-20T21:26:49.104Z,75.05
2023-04-20T21:29:26.879Z,75.18
2023-04-20T21:32:03.258Z,75.30
2023-04-20T21:34:39.828Z,75.60
2023-04-20T21:37:16.300Z,75.76
2023-04-20T21:39:53.529Z,75.99
2023-04-20T21:42:29.856Z,76.10
2023-04-20T21:45:10.558Z,76.31
2023-04-20T21:47:48.377Z,76.59
2023-04-20T21:50:27.196Z,76.83
2023-04-20T21:53:03.729Z,76.98
2023-04-20T21:55:40.177Z,77.08
2023-04-20T21:58:18.484Z,77.21
2023-04-20T22:00:54.984Z,77.40
2023-04-20T22:03:32.417Z,77.56
2023-04-20T22:06:09.966Z,77.69
2023-04-20T22:08:46.626Z,77.83
2023-04-20T22:11:22.876Z,77.88
2023-04-20T22:14:02.369Z,78.03
2023-04-20T22:16:39.292Z,78.12
2023-04-20T22:19:16.346Z,78.17
2023-04-20T22:21:54.664Z,78.18
2023-04-20T22:24:30.952Z,78.26
2023-04-20T22:27:09.431Z,78.34
2023-04-20T22:29:48.325Z,78.42
2023-04-20T22:32:28.550Z,78.47
2023-04-20T22:35:10.244Z,78.57
2023-04-20T22:37:46.566Z,78.73
2023-04-20T22:40:23.066Z,78.81
2023-04-20T22:43:09.780Z,78.90
2023-04-20T22:45:46.781Z,78.96
2023-04-20T22:48:23.213Z,79.05
2023-04-20T22:51:04.094Z,79.02
2023-04-20T22:53:40.335Z,79.00
2023-04-20T22:56:17.430Z,79.15
2023-04-20T22:58:59.435Z,79.05
2023-04-20T23:01:35.786Z,79.00
2023-04-20T23:04:12.485Z,78.85
2023-04-20T23:06:48.735Z,78.74
2023-04-20T23:09:25.115Z,78.61
2023-04-20T23:12:03.811Z,78.70
2023-04-20T23:14:43.751Z,78.90
2023-04-20T23:17:20.222Z,78.94
2023-04-20T23:19:56.716Z,79.13
2023-04-20T23:22:33.078Z,79.24
2023-04-20T23:25:11.429Z,79.27
2023-04-20T23:27:56.432Z,79.31
2023-04-20T23:30:32.913Z,79.45
2023-04-20T23:33:24.418Z,79.55
2023-04-20T23:36:05.743Z,79.69
2023-04-20T23:38:42.168Z,79.78
2023-04-20T23:41:19.905Z,79.86
2023-04-20T23:43:57.558Z,79.97
2023-04-20T23:46:34.605Z,80.03
2023-04-20T23:49:11.527Z,80.19
2023-04-20T23:52:00.885Z,80.36
2023-04-20T23:54:38.432Z,80.48
2023-04-20T23:57:14.835Z,80.62
2023-04-20T23:59:51.408Z,80.73
